sensor_id;sensor_type;location;lat;lon;timestamp;P1;durP1;ratioP1;P2;durP2;ratioP2
53718;SDS011;39616;48.872;9.390;2022-08-14T00:01:08;1.20;;;1.10;;
53718;SDS011;39616;48.872;9.390;2022-08-14T00:03:38;1.20;;;1.10;;
53718;SDS011;39616;48.872;9.390;2022-08-14T00:06:09;1.48;;;1.30;;
53718;SDS011;39616;48.872;9.390;2022-08-14T00:08:39;1.45;;;1.30;;
53718;SDS011;39616;48.872;9.390;2022-08-14T00:11:09;1.27;;;1.17;;
53718;SDS011;39616;48.872;9.390;2022-08-14T00:13:40;1.10;;;1.00;;
53718;SDS011;39616;48.872;9.390;2022-08-14T00:16:12;3.25;;;1.40;;
53718;SDS011;39616;48.872;9.390;2022-08-14T00:18:43;3.92;;;1.30;;
53718;SDS011;39616;48.872;9.390;2022-08-14T00:21:13;1.50;;;1.30;;
53718;SDS011;39616;48.872;9.390;2022-08-14T00:23:44;2.72;;;1.25;;
53718;SDS011;39616;48.872;9.390;2022-08-14T00:26:14;3.63;;;2.10;;
53718;SDS011;39616;48.872;9.390;2022-08-14T00:28:44;2.38;;;1.30;;
53718;SDS011;39616;48.872;9.390;2022-08-14T00:31:14;1.55;;;1.35;;
53718;SDS011;39616;48.872;9.390;2022-08-14T00:33:45;1.80;;;1.10;;
53718;SDS011;39616;48.872;9.390;2022-08-14T00:36:15;1.92;;;1.33;;
53718;SDS011;39616;48.872;9.390;2022-08-14T00:38:46;2.15;;;1.30;;
53718;SDS011;39616;48.872;9.390;2022-08-14T00:41:16;1.30;;;1.20;;
53718;SDS011;39616;48.872;9.390;2022-08-14T00:43:47;1.50;;;1.30;;
53718;SDS011;39616;48.872;9.390;2022-08-14T00:46:17;1.58;;;1.33;;
53718;SDS011;39616;48.872;9.390;2022-08-14T00:48:48;1.50;;;1.25;;
53718;SDS011;39616;48.872;9.390;2022-08-14T00:51:18;1.20;;;1.10;;
53718;SDS011;39616;48.872;9.390;2022-08-14T00:53:50;3.13;;;1.25;;
53718;SDS011;39616;48.872;9.390;2022-08-14T00:56:20;1.48;;;1.20;;
53718;SDS011;39616;48.872;9.390;2022-08-14T00:58:51;3.70;;;1.30;;
53718;SDS011;39616;48.872;9.390;2022-08-14T01:01:23;1.67;;;1.55;;
53718;SDS011;39616;48.872;9.390;2022-08-14T01:03:54;3.83;;;1.50;;
53718;SDS011;39616;48.872;9.390;2022-08-14T01:06:26;1.30;;;1.20;;
53718;SDS011;39616;48.872;9.390;2022-08-14T01:08:57;2.58;;;1.13;;
53718;SDS011;39616;48.872;9.390;2022-08-14T01:11:28;2.53;;;1.30;;
53718;SDS011;39616;48.872;9.390;2022-08-14T01:14:00;2.38;;;1.38;;
53718;SDS011;39616;48.872;9.390;2022-08-14T01:16:31;1.95;;;1.40;;
53718;SDS011;39616;48.872;9.390;2022-08-14T01:19:01;2.85;;;1.33;;
53718;SDS011;39616;48.872;9.390;2022-08-14T01:21:50;5.88;;;1.50;;
53718;SDS011;39616;48.872;9.390;2022-08-14T01:24:21;2.17;;;1.20;;
53718;SDS011;39616;48.872;9.390;2022-08-14T01:26:52;2.75;;;1.35;;
53718;SDS011;39616;48.872;9.390;2022-08-14T01:29:23;1.75;;;1.50;;
53718;SDS011;39616;48.872;9.390;2022-08-14T01:31:55;2.13;;;1.38;;
53718;SDS011;39616;48.872;9.390;2022-08-14T01:34:28;2.67;;;1.40;;
53718;SDS011;39616;48.872;9.390;2022-08-14T01:37:02;4.18;;;1.70;;
53718;SDS011;39616;48.872;9.390;2022-08-14T01:39:33;3.22;;;1.35;;
53718;SDS011;39616;48.872;9.390;2022-08-14T01:42:05;2.28;;;1.60;;
53718;SDS011;39616;48.872;9.390;2022-08-14T01:44:35;1.45;;;1.25;;
53718;SDS011;39616;48.872;9.390;2022-08-14T01:47:08;1.63;;;1.20;;
53718;SDS011;39616;48.872;9.390;2022-08-14T01:49:42;1.70;;;1.30;;
53718;SDS011;39616;48.872;9.390;2022-08-14T01:52:13;2.80;;;1.70;;
53718;SDS011;39616;48.872;9.390;2022-08-14T01:54:43;5.07;;;1.52;;
53718;SDS011;39616;48.872;9.390;2022-08-14T01:57:14;1.83;;;1.40;;
53718;SDS011;39616;48.872;9.390;2022-08-14T01:59:44;2.33;;;1.70;;
53718;SDS011;39616;48.872;9.390;2022-08-14T02:02:14;3.65;;;1.67;;
53718;SDS011;39616;48.872;9.390;2022-08-14T02:04:46;3.50;;;1.75;;
53718;SDS011;39616;48.872;9.390;2022-08-14T02:07:16;1.58;;;1.40;;
53718;SDS011;39616;48.872;9.390;2022-08-14T02:09:47;3.35;;;1.50;;
53718;SDS011;39616;48.872;9.390;2022-08-14T02:12:17;2.67;;;1.80;;
53718;SDS011;39616;48.872;9.390;2022-08-14T02:14:47;2.95;;;1.50;;
53718;SDS011;39616;48.872;9.390;2022-08-14T02:17:19;2.17;;;1.45;;
53718;SDS011;39616;48.872;9.390;2022-08-14T02:19:52;3.58;;;1.60;;
53718;SDS011;39616;48.872;9.390;2022-08-14T02:22:23;2.95;;;1.63;;
53718;SDS011;39616;48.872;9.390;2022-08-14T02:24:54;4.88;;;1.52;;
53718;SDS011;39616;48.872;9.390;2022-08-14T02:27:25;3.47;;;1.83;;
53718;SDS011;39616;48.872;9.390;2022-08-14T02:29:58;3.00;;;1.33;;
53718;SDS011;39616;48.872;9.390;2022-08-14T02:32:29;1.60;;;1.50;;
53718;SDS011;39616;48.872;9.390;2022-08-14T02:35:00;4.25;;;1.70;;
53718;SDS011;39616;48.872;9.390;2022-08-14T02:37:32;3.30;;;1.65;;
53718;SDS011;39616;48.872;9.390;2022-08-14T02:40:03;3.28;;;1.77;;
53718;SDS011;39616;48.872;9.390;2022-08-14T02:42:33;1.38;;;1.27;;
53718;SDS011;39616;48.872;9.390;2022-08-14T02:45:04;2.17;;;1.50;;
53718;SDS011;39616;48.872;9.390;2022-08-14T02:47:35;1.90;;;1.45;;
53718;SDS011;39616;48.872;9.390;2022-08-14T02:50:05;2.10;;;1.67;;
53718;SDS011;39616;48.872;9.390;2022-08-14T02:52:36;3.67;;;1.70;;
53718;SDS011;39616;48.872;9.390;2022-08-14T02:55:06;1.70;;;1.55;;
53718;SDS011;39616;48.872;9.390;2022-08-14T02:57:38;2.45;;;1.50;;
53718;SDS011;39616;48.872;9.390;2022-08-14T03:00:09;1.92;;;1.30;;
53718;SDS011;39616;48.872;9.390;2022-08-14T03:02:41;2.20;;;1.70;;
53718;SDS011;39616;48.872;9.390;2022-08-14T03:05:12;4.18;;;1.92;;
53718;SDS011;39616;48.872;9.390;2022-08-14T03:07:42;2.72;;;1.50;;
53718;SDS011;39616;48.872;9.390;2022-08-14T03:10:13;2.28;;;2.08;;
53718;SDS011;39616;48.872;9.390;2022-08-14T03:12:43;2.17;;;1.45;;
53718;SDS011;39616;48.872;9.390;2022-08-14T03:15:14;2.85;;;1.50;;
53718;SDS011;39616;48.872;9.390;2022-08-14T03:17:45;2.92;;;1.50;;
53718;SDS011;39616;48.872;9.390;2022-08-14T03:20:15;1.70;;;1.50;;
53718;SDS011;39616;48.872;9.390;2022-08-14T03:22:45;1.65;;;1.23;;
53718;SDS011;39616;48.872;9.390;2022-08-14T03:25:16;1.98;;;1.60;;
53718;SDS011;39616;48.872;9.390;2022-08-14T03:27:46;3.30;;;1.55;;
53718;SDS011;39616;48.872;9.390;2022-08-14T03:30:16;2.10;;;1.42;;
53718;SDS011;39616;48.872;9.390;2022-08-14T03:32:47;2.45;;;1.50;;
53718;SDS011;39616;48.872;9.390;2022-08-14T03:35:17;2.08;;;1.60;;
53718;SDS011;39616;48.872;9.390;2022-08-14T03:37:49;1.90;;;1.80;;
53718;SDS011;39616;48.872;9.390;2022-08-14T03:40:22;2.15;;;1.77;;
53718;SDS011;39616;48.872;9.390;2022-08-14T03:42:54;2.00;;;1.50;;
53718;SDS011;39616;48.872;9.390;2022-08-14T03:45:24;2.80;;;1.63;;
53718;SDS011;39616;48.872;9.390;2022-08-14T03:47:54;3.50;;;1.75;;
53718;SDS011;39616;48.872;9.390;2022-08-14T03:50:25;1.77;;;1.67;;
53718;SDS011;39616;48.872;9.390;2022-08-14T03:52:57;1.70;;;1.60;;
53718;SDS011;39616;48.872;9.390;2022-08-14T03:55:32;2.67;;;1.67;;
53718;SDS011;39616;48.872;9.390;2022-08-14T03:58:02;2.90;;;1.88;;
53718;SDS011;39616;48.872;9.390;2022-08-14T04:00:33;2.63;;;2.05;;
53718;SDS011;39616;48.872;9.390;2022-08-14T04:03:06;2.42;;;1.80;;
53718;SDS011;39616;48.872;9.390;2022-08-14T04:05:38;4.53;;;2.08;;
53718;SDS011;39616;48.872;9.390;2022-08-14T04:08:11;2.53;;;1.75;;
53718;SDS011;39616;48.872;9.390;2022-08-14T04:10:41;1.92;;;1.83;;
53718;SDS011;39616;48.872;9.390;2022-08-14T04:13:12;3.15;;;2.15;;
53718;SDS011;39616;48.872;9.390;2022-08-14T04:15:47;2.40;;;1.95;;
53718;SDS011;39616;48.872;9.390;2022-08-14T04:18:17;2.95;;;1.60;;
53718;SDS011;39616;48.872;9.390;2022-08-14T04:20:48;2.92;;;1.65;;
53718;SDS011;39616;48.872;9.390;2022-08-14T04:23:18;1.92;;;1.83;;
53718;SDS011;39616;48.872;9.390;2022-08-14T04:25:49;2.05;;;1.85;;
53718;SDS011;39616;48.872;9.390;2022-08-14T04:28:23;1.92;;;1.83;;
53718;SDS011;39616;48.872;9.390;2022-08-14T04:30:55;3.90;;;1.90;;
53718;SDS011;39616;48.872;9.390;2022-08-14T04:33:25;1.77;;;1.67;;
53718;SDS011;39616;48.872;9.390;2022-08-14T04:35:57;2.45;;;2.28;;
53718;SDS011;39616;48.872;9.390;2022-08-14T04:38:28;2.75;;;1.67;;
53718;SDS011;39616;48.872;9.390;2022-08-14T04:41:19;1.83;;;1.55;;
53718;SDS011;39616;48.872;9.390;2022-08-14T04:44:19;1.75;;;1.65;;
53718;SDS011;39616;48.872;9.390;2022-08-14T04:46:50;1.90;;;1.80;;
53718;SDS011;39616;48.872;9.390;2022-08-14T04:49:38;3.60;;;2.20;;
53718;SDS011;39616;48.872;9.390;2022-08-14T04:52:11;2.78;;;1.77;;
53718;SDS011;39616;48.872;9.390;2022-08-14T04:54:41;5.82;;;1.73;;
53718;SDS011;39616;48.872;9.390;2022-08-14T04:57:12;2.55;;;2.35;;
53718;SDS011;39616;48.872;9.390;2022-08-14T04:59:44;2.28;;;1.63;;
53718;SDS011;39616;48.872;9.390;2022-08-14T05:02:14;3.35;;;1.70;;
53718;SDS011;39616;48.872;9.390;2022-08-14T05:04:46;3.85;;;1.60;;
53718;SDS011;39616;48.872;9.390;2022-08-14T05:07:17;1.88;;;1.77;;
53718;SDS011;39616;48.872;9.390;2022-08-14T05:09:47;2.58;;;1.73;;
53718;SDS011;39616;48.872;9.390;2022-08-14T05:12:18;1.60;;;1.50;;
53718;SDS011;39616;48.872;9.390;2022-08-14T05:14:48;4.20;;;1.70;;
53718;SDS011;39616;48.872;9.390;2022-08-14T05:17:19;2.17;;;2.08;;
53718;SDS011;39616;48.872;9.390;2022-08-14T05:19:51;1.83;;;1.70;;
53718;SDS011;39616;48.872;9.390;2022-08-14T05:22:21;5.97;;;2.03;;
53718;SDS011;39616;48.872;9.390;2022-08-14T05:24:52;2.38;;;1.80;;
53718;SDS011;39616;48.872;9.390;2022-08-14T05:27:22;6.70;;;2.03;;
53718;SDS011;39616;48.872;9.390;2022-08-14T05:29:53;1.50;;;1.40;;
53718;SDS011;39616;48.872;9.390;2022-08-14T05:32:24;5.97;;;2.20;;
53718;SDS011;39616;48.872;9.390;2022-08-14T05:34:57;6.30;;;1.98;;
53718;SDS011;39616;48.872;9.390;2022-08-14T05:37:28;1.88;;;1.70;;
53718;SDS011;39616;48.872;9.390;2022-08-14T05:39:59;3.63;;;2.15;;
53718;SDS011;39616;48.872;9.390;2022-08-14T05:42:30;10.77;;;2.67;;
53718;SDS011;39616;48.872;9.390;2022-08-14T05:45:02;4.75;;;1.90;;
53718;SDS011;39616;48.872;9.390;2022-08-14T05:47:37;2.75;;;2.55;;
53718;SDS011;39616;48.872;9.390;2022-08-14T05:50:10;4.78;;;2.03;;
53718;SDS011;39616;48.872;9.390;2022-08-14T05:52:42;3.00;;;2.50;;
53718;SDS011;39616;48.872;9.390;2022-08-14T05:55:12;2.95;;;2.38;;
53718;SDS011;39616;48.872;9.390;2022-08-14T05:57:50;2.67;;;2.10;;
53718;SDS011;39616;48.872;9.390;2022-08-14T06:00:32;5.18;;;2.35;;
53718;SDS011;39616;48.872;9.390;2022-08-14T06:03:11;3.35;;;2.65;;
53718;SDS011;39616;48.872;9.390;2022-08-14T06:05:46;2.67;;;2.17;;
53718;SDS011;39616;48.872;9.390;2022-08-14T06:08:26;13.07;;;3.22;;
53718;SDS011;39616;48.872;9.390;2022-08-14T06:10:59;3.65;;;2.10;;
53718;SDS011;39616;48.872;9.390;2022-08-14T06:13:36;5.13;;;2.33;;
53718;SDS011;39616;48.872;9.390;2022-08-14T06:16:08;5.25;;;2.25;;
53718;SDS011;39616;48.872;9.390;2022-08-14T06:18:39;4.40;;;2.25;;
53718;SDS011;39616;48.872;9.390;2022-08-14T06:21:09;3.22;;;2.13;;
53718;SDS011;39616;48.872;9.390;2022-08-14T06:23:40;4.40;;;2.53;;
53718;SDS011;39616;48.872;9.390;2022-08-14T06:26:10;4.10;;;2.30;;
53718;SDS011;39616;48.872;9.390;2022-08-14T06:28:40;2.00;;;1.83;;
53718;SDS011;39616;48.872;9.390;2022-08-14T06:31:11;5.68;;;2.20;;
53718;SDS011;39616;48.872;9.390;2022-08-14T06:33:41;2.10;;;1.80;;
53718;SDS011;39616;48.872;9.390;2022-08-14T06:36:11;1.75;;;1.65;;
53718;SDS011;39616;48.872;9.390;2022-08-14T06:38:41;3.40;;;2.28;;
53718;SDS011;39616;48.872;9.390;2022-08-14T06:41:12;2.53;;;2.20;;
53718;SDS011;39616;48.872;9.390;2022-08-14T06:43:42;2.35;;;2.08;;
53718;SDS011;39616;48.872;9.390;2022-08-14T06:46:12;2.20;;;2.00;;
53718;SDS011;39616;48.872;9.390;2022-08-14T06:48:43;2.28;;;1.75;;
53718;SDS011;39616;48.872;9.390;2022-08-14T06:51:13;1.85;;;1.75;;
53718;SDS011;39616;48.872;9.390;2022-08-14T06:53:43;3.30;;;1.63;;
53718;SDS011;39616;48.872;9.390;2022-08-14T06:56:14;2.25;;;1.48;;
53718;SDS011;39616;48.872;9.390;2022-08-14T06:58:44;2.35;;;1.75;;
53718;SDS011;39616;48.872;9.390;2022-08-14T07:01:14;3.63;;;1.60;;
53718;SDS011;39616;48.872;9.390;2022-08-14T07:04:03;1.80;;;1.45;;
53718;SDS011;39616;48.872;9.390;2022-08-14T07:06:52;1.35;;;1.25;;
53718;SDS011;39616;48.872;9.390;2022-08-14T07:09:23;2.25;;;1.80;;
53718;SDS011;39616;48.872;9.390;2022-08-14T07:11:53;2.92;;;1.30;;
53718;SDS011;39616;48.872;9.390;2022-08-14T07:14:24;1.70;;;1.60;;
53718;SDS011;39616;48.872;9.390;2022-08-14T07:16:54;3.45;;;1.63;;
53718;SDS011;39616;48.872;9.390;2022-08-14T07:19:25;1.55;;;1.45;;
53718;SDS011;39616;48.872;9.390;2022-08-14T07:21:55;1.73;;;1.38;;
53718;SDS011;39616;48.872;9.390;2022-08-14T07:24:26;2.42;;;1.45;;
53718;SDS011;39616;48.872;9.390;2022-08-14T07:26:56;1.40;;;1.30;;
53718;SDS011;39616;48.872;9.390;2022-08-14T07:29:26;4.60;;;1.55;;
53718;SDS011;39616;48.872;9.390;2022-08-14T07:31:57;2.08;;;1.50;;
53718;SDS011;39616;48.872;9.390;2022-08-14T07:34:27;2.33;;;1.38;;
53718;SDS011;39616;48.872;9.390;2022-08-14T07:36:57;2.47;;;1.30;;
53718;SDS011;39616;48.872;9.390;2022-08-14T07:39:28;1.65;;;1.33;;
53718;SDS011;39616;48.872;9.390;2022-08-14T07:41:58;1.67;;;1.35;;
53718;SDS011;39616;48.872;9.390;2022-08-14T07:44:28;2.03;;;1.13;;
53718;SDS011;39616;48.872;9.390;2022-08-14T07:46:59;2.67;;;1.33;;
53718;SDS011;39616;48.872;9.390;2022-08-14T07:49:30;1.70;;;1.20;;
53718;SDS011;39616;48.872;9.390;2022-08-14T07:52:02;2.08;;;1.40;;
53718;SDS011;39616;48.872;9.390;2022-08-14T07:54:33;1.50;;;1.25;;
53718;SDS011;39616;48.872;9.390;2022-08-14T07:57:04;1.55;;;1.30;;
53718;SDS011;39616;48.872;9.390;2022-08-14T07:59:34;1.98;;;1.25;;
53718;SDS011;39616;48.872;9.390;2022-08-14T08:02:04;1.17;;;1.05;;
53718;SDS011;39616;48.872;9.390;2022-08-14T08:04:36;3.15;;;1.10;;
53718;SDS011;39616;48.872;9.390;2022-08-14T08:07:12;1.92;;;1.30;;
53718;SDS011;39616;48.872;9.390;2022-08-14T08:09:43;1.35;;;1.05;;
53718;SDS011;39616;48.872;9.390;2022-08-14T08:12:22;3.28;;;1.30;;
53718;SDS011;39616;48.872;9.390;2022-08-14T08:14:54;1.35;;;1.00;;
53718;SDS011;39616;48.872;9.390;2022-08-14T08:17:26;2.17;;;1.30;;
53718;SDS011;39616;48.872;9.390;2022-08-14T08:19:57;2.60;;;1.40;;
53718;SDS011;39616;48.872;9.390;2022-08-14T08:22:27;2.22;;;1.00;;
53718;SDS011;39616;48.872;9.390;2022-08-14T08:24:58;3.08;;;1.10;;
53718;SDS011;39616;48.872;9.390;2022-08-14T08:27:29;1.20;;;0.80;;
53718;SDS011;39616;48.872;9.390;2022-08-14T08:30:03;1.98;;;1.00;;
53718;SDS011;39616;48.872;9.390;2022-08-14T08:32:39;2.78;;;0.90;;
53718;SDS011;39616;48.872;9.390;2022-08-14T08:35:17;2.00;;;0.90;;
53718;SDS011;39616;48.872;9.390;2022-08-14T08:37:53;1.20;;;1.08;;
53718;SDS011;39616;48.872;9.390;2022-08-14T08:40:51;3.17;;;1.02;;
53718;SDS011;39616;48.872;9.390;2022-08-14T08:43:22;0.98;;;0.85;;
53718;SDS011;39616;48.872;9.390;2022-08-14T08:45:58;1.00;;;0.80;;
53718;SDS011;39616;48.872;9.390;2022-08-14T08:53:56;1.38;;;1.00;;
53718;SDS011;39616;48.872;9.390;2022-08-14T08:59:15;1.30;;;1.20;;
53718;SDS011;39616;48.872;9.390;2022-08-14T09:02:03;1.00;;;1.00;;
53718;SDS011;39616;48.872;9.390;2022-08-14T09:04:42;1.10;;;1.00;;
53718;SDS011;39616;48.872;9.390;2022-08-14T09:07:13;1.90;;;1.27;;
53718;SDS011;39616;48.872;9.390;2022-08-14T09:09:43;2.20;;;1.10;;
53718;SDS011;39616;48.872;9.390;2022-08-14T09:12:22;1.08;;;0.98;;
53718;SDS011;39616;48.872;9.390;2022-08-14T09:14:54;1.20;;;1.10;;
53718;SDS011;39616;48.872;9.390;2022-08-14T09:17:26;3.05;;;1.40;;
53718;SDS011;39616;48.872;9.390;2022-08-14T09:19:56;1.63;;;1.27;;
53718;SDS011;39616;48.872;9.390;2022-08-14T09:22:28;1.98;;;0.98;;
53718;SDS011;39616;48.872;9.390;2022-08-14T09:24:59;1.67;;;1.15;;
53718;SDS011;39616;48.872;9.390;2022-08-14T09:27:30;1.17;;;1.08;;
53718;SDS011;39616;48.872;9.390;2022-08-14T09:30:00;3.80;;;1.30;;
53718;SDS011;39616;48.872;9.390;2022-08-14T09:32:31;5.68;;;1.40;;
53718;SDS011;39616;48.872;9.390;2022-08-14T09:35:16;1.20;;;1.10;;
53718;SDS011;39616;48.872;9.390;2022-08-14T09:43:32;2.65;;;1.13;;
53718;SDS011;39616;48.872;9.390;2022-08-14T09:46:09;1.23;;;1.15;;
53718;SDS011;39616;48.872;9.390;2022-08-14T09:48:39;1.30;;;1.20;;
53718;SDS011;39616;48.872;9.390;2022-08-14T09:51:18;1.35;;;1.25;;
53718;SDS011;39616;48.872;9.390;2022-08-14T09:53:59;2.92;;;1.20;;
53718;SDS011;39616;48.872;9.390;2022-08-14T09:56:48;1.83;;;1.40;;
53718;SDS011;39616;48.872;9.390;2022-08-14T09:59:19;2.35;;;1.20;;
53718;SDS011;39616;48.872;9.390;2022-08-14T10:01:54;1.63;;;1.40;;
53718;SDS011;39616;48.872;9.390;2022-08-14T10:04:26;2.58;;;1.40;;
53718;SDS011;39616;48.872;9.390;2022-08-14T10:07:00;2.13;;;1.13;;
53718;SDS011;39616;48.872;9.390;2022-08-14T10:09:31;3.08;;;1.13;;
53718;SDS011;39616;48.872;9.390;2022-08-14T10:12:01;2.58;;;1.30;;
53718;SDS011;39616;48.872;9.390;2022-08-14T10:14:34;2.60;;;1.30;;
53718;SDS011;39616;48.872;9.390;2022-08-14T10:17:04;1.38;;;1.20;;
53718;SDS011;39616;48.872;9.390;2022-08-14T10:19:45;1.38;;;1.10;;
53718;SDS011;39616;48.872;9.390;2022-08-14T10:22:23;2.58;;;1.17;;
53718;SDS011;39616;48.872;9.390;2022-08-14T10:24:57;1.20;;;1.10;;
53718;SDS011;39616;48.872;9.390;2022-08-14T10:27:28;1.90;;;1.33;;
53718;SDS011;39616;48.872;9.390;2022-08-14T10:29:59;1.70;;;1.20;;
53718;SDS011;39616;48.872;9.390;2022-08-14T10:32:29;1.85;;;1.38;;
53718;SDS011;39616;48.872;9.390;2022-08-14T10:35:12;4.30;;;1.40;;
53718;SDS011;39616;48.872;9.390;2022-08-14T10:37:45;1.70;;;1.60;;
53718;SDS011;39616;48.872;9.390;2022-08-14T10:40:26;1.33;;;1.23;;
53718;SDS011;39616;48.872;9.390;2022-08-14T10:42:58;3.53;;;1.52;;
53718;SDS011;39616;48.872;9.390;2022-08-14T10:45:30;2.67;;;1.40;;
53718;SDS011;39616;48.872;9.390;2022-08-14T10:48:12;1.42;;;1.30;;
53718;SDS011;39616;48.872;9.390;2022-08-14T10:50:46;1.92;;;1.55;;
53718;SDS011;39616;48.872;9.390;2022-08-14T10:53:27;1.75;;;1.20;;
53718;SDS011;39616;48.872;9.390;2022-08-14T10:55:59;1.55;;;1.35;;
53718;SDS011;39616;48.872;9.390;2022-08-14T10:58:35;1.70;;;1.60;;
53718;SDS011;39616;48.872;9.390;2022-08-14T11:01:05;1.73;;;1.50;;
53718;SDS011;39616;48.872;9.390;2022-08-14T11:03:40;2.13;;;1.40;;
53718;SDS011;39616;48.872;9.390;2022-08-14T11:06:15;4.53;;;1.50;;
53718;SDS011;39616;48.872;9.390;2022-08-14T11:08:51;1.48;;;1.38;;
53718;SDS011;39616;48.872;9.390;2022-08-14T11:11:22;1.63;;;1.52;;
53718;SDS011;39616;48.872;9.390;2022-08-14T11:13:56;1.58;;;1.48;;
53718;SDS011;39616;48.872;9.390;2022-08-14T11:16:26;3.63;;;1.60;;
53718;SDS011;39616;48.872;9.390;2022-08-14T11:18:58;1.60;;;1.50;;
53718;SDS011;39616;48.872;9.390;2022-08-14T11:21:32;1.50;;;1.40;;
53718;SDS011;39616;48.872;9.390;2022-08-14T11:24:05;1.75;;;1.23;;
53718;SDS011;39616;48.872;9.390;2022-08-14T11:26:37;2.00;;;1.80;;
53718;SDS011;39616;48.872;9.390;2022-08-14T11:29:09;1.55;;;1.27;;
53718;SDS011;39616;48.872;9.390;2022-08-14T11:31:40;2.42;;;1.50;;
53718;SDS011;39616;48.872;9.390;2022-08-14T11:34:11;2.65;;;1.50;;
53718;SDS011;39616;48.872;9.390;2022-08-14T11:36:42;1.50;;;1.40;;
53718;SDS011;39616;48.872;9.390;2022-08-14T11:39:19;5.65;;;1.45;;
53718;SDS011;39616;48.872;9.390;2022-08-14T11:41:50;1.73;;;1.20;;
53718;SDS011;39616;48.872;9.390;2022-08-14T11:44:21;2.75;;;1.40;;
53718;SDS011;39616;48.872;9.390;2022-08-14T11:46:51;1.48;;;1.30;;
53718;SDS011;39616;48.872;9.390;2022-08-14T11:49:25;1.63;;;1.52;;
53718;SDS011;39616;48.872;9.390;2022-08-14T11:51:57;1.33;;;1.23;;
53718;SDS011;39616;48.872;9.390;2022-08-14T11:54:28;1.50;;;1.40;;
53718;SDS011;39616;48.872;9.390;2022-08-14T11:56:59;1.50;;;1.40;;
53718;SDS011;39616;48.872;9.390;2022-08-14T11:59:29;1.50;;;1.40;;
53718;SDS011;39616;48.872;9.390;2022-08-14T12:02:11;1.50;;;1.40;;
53718;SDS011;39616;48.872;9.390;2022-08-14T12:04:49;1.83;;;1.67;;
53718;SDS011;39616;48.872;9.390;2022-08-14T12:07:20;1.50;;;1.40;;
53718;SDS011;39616;48.872;9.390;2022-08-14T12:09:51;1.60;;;1.50;;
53718;SDS011;39616;48.872;9.390;2022-08-14T12:12:26;1.60;;;1.50;;
53718;SDS011;39616;48.872;9.390;2022-08-14T12:14:58;1.70;;;1.30;;
53718;SDS011;39616;48.872;9.390;2022-08-14T12:17:30;1.95;;;1.67;;
53718;SDS011;39616;48.872;9.390;2022-08-14T12:20:13;2.67;;;1.48;;
53718;SDS011;39616;48.872;9.390;2022-08-14T12:22:44;2.53;;;1.27;;
53718;SDS011;39616;48.872;9.390;2022-08-14T12:25:18;2.25;;;1.52;;
53718;SDS011;39616;48.872;9.390;2022-08-14T12:33:05;1.95;;;1.27;;
53718;SDS011;39616;48.872;9.390;2022-08-14T12:35:49;2.30;;;1.33;;
53718;SDS011;39616;48.872;9.390;2022-08-14T12:38:30;2.03;;;1.45;;
53718;SDS011;39616;48.872;9.390;2022-08-14T12:41:11;1.60;;;1.50;;
53718;SDS011;39616;48.872;9.390;2022-08-14T12:43:47;1.77;;;1.55;;
53718;SDS011;39616;48.872;9.390;2022-08-14T12:46:23;1.58;;;1.45;;
53718;SDS011;39616;48.872;9.390;2022-08-14T12:48:57;3.33;;;1.58;;
53718;SDS011;39616;48.872;9.390;2022-08-14T12:51:29;1.58;;;1.40;;
53718;SDS011;39616;48.872;9.390;2022-08-14T12:53:59;1.83;;;1.27;;
53718;SDS011;39616;48.872;9.390;2022-08-14T12:56:40;1.58;;;1.48;;
53718;SDS011;39616;48.872;9.390;2022-08-14T12:59:11;7.38;;;1.50;;
53718;SDS011;39616;48.872;9.390;2022-08-14T13:01:43;2.13;;;1.40;;
53718;SDS011;39616;48.872;9.390;2022-08-14T13:04:15;8.30;;;1.90;;
53718;SDS011;39616;48.872;9.390;2022-08-14T13:06:46;2.60;;;1.63;;
53718;SDS011;39616;48.872;9.390;2022-08-14T13:09:16;1.95;;;1.48;;
53718;SDS011;39616;48.872;9.390;2022-08-14T13:11:48;2.83;;;1.33;;
53718;SDS011;39616;48.872;9.390;2022-08-14T13:14:22;1.67;;;1.33;;
53718;SDS011;39616;48.872;9.390;2022-08-14T13:16:56;1.63;;;1.48;;
53718;SDS011;39616;48.872;9.390;2022-08-14T13:19:26;1.48;;;1.38;;
53718;SDS011;39616;48.872;9.390;2022-08-14T13:21:56;3.08;;;1.58;;
53718;SDS011;39616;48.872;9.390;2022-08-14T13:24:27;1.70;;;1.58;;
53718;SDS011;39616;48.872;9.390;2022-08-14T13:26:57;3.63;;;1.23;;
53718;SDS011;39616;48.872;9.390;2022-08-14T13:29:34;1.40;;;1.30;;
53718;SDS011;39616;48.872;9.390;2022-08-14T13:32:10;2.47;;;1.35;;
53718;SDS011;39616;48.872;9.390;2022-08-14T13:34:42;2.63;;;1.40;;
53718;SDS011;39616;48.872;9.390;2022-08-14T13:37:16;1.50;;;1.40;;
53718;SDS011;39616;48.872;9.390;2022-08-14T13:39:48;2.40;;;1.50;;
53718;SDS011;39616;48.872;9.390;2022-08-14T13:42:23;1.70;;;1.60;;
53718;SDS011;39616;48.872;9.390;2022-08-14T13:44:57;2.47;;;1.50;;
53718;SDS011;39616;48.872;9.390;2022-08-14T13:47:29;2.42;;;1.52;;
53718;SDS011;39616;48.872;9.390;2022-08-14T13:50:03;1.63;;;1.50;;
53718;SDS011;39616;48.872;9.390;2022-08-14T13:55:12;2.75;;;1.30;;
53718;SDS011;39616;48.872;9.390;2022-08-14T14:00:18;1.40;;;1.30;;
53718;SDS011;39616;48.872;9.390;2022-08-14T14:02:48;3.28;;;1.50;;
53718;SDS011;39616;48.872;9.390;2022-08-14T14:05:20;1.30;;;1.20;;
53718;SDS011;39616;48.872;9.390;2022-08-14T14:07:51;1.90;;;1.20;;
53718;SDS011;39616;48.872;9.390;2022-08-14T14:10:22;1.55;;;1.20;;
53718;SDS011;39616;48.872;9.390;2022-08-14T14:12:54;1.48;;;1.17;;
53718;SDS011;39616;48.872;9.390;2022-08-14T14:15:25;1.55;;;1.45;;
53718;SDS011;39616;48.872;9.390;2022-08-14T14:17:55;3.22;;;1.10;;
53718;SDS011;39616;48.872;9.390;2022-08-14T14:20:28;2.65;;;1.33;;
53718;SDS011;39616;48.872;9.390;2022-08-14T14:22:58;1.20;;;1.20;;
53718;SDS011;39616;48.872;9.390;2022-08-14T14:25:29;1.30;;;1.20;;
53718;SDS011;39616;48.872;9.390;2022-08-14T14:28:00;1.10;;;1.00;;
53718;SDS011;39616;48.872;9.390;2022-08-14T14:30:33;1.10;;;1.00;;
53718;SDS011;39616;48.872;9.390;2022-08-14T14:33:05;1.23;;;1.00;;
53718;SDS011;39616;48.872;9.390;2022-08-14T14:35:42;1.20;;;1.00;;
53718;SDS011;39616;48.872;9.390;2022-08-14T14:38:14;1.75;;;1.10;;
53718;SDS011;39616;48.872;9.390;2022-08-14T14:40:46;2.20;;;1.10;;
53718;SDS011;39616;48.872;9.390;2022-08-14T14:43:19;1.17;;;1.00;;
53718;SDS011;39616;48.872;9.390;2022-08-14T14:45:53;1.90;;;1.10;;
53718;SDS011;39616;48.872;9.390;2022-08-14T14:48:24;2.70;;;1.08;;
53718;SDS011;39616;48.872;9.390;2022-08-14T14:50:58;1.00;;;0.90;;
53718;SDS011;39616;48.872;9.390;2022-08-14T14:53:31;1.20;;;1.10;;
53718;SDS011;39616;48.872;9.390;2022-08-14T14:56:03;1.20;;;1.10;;
53718;SDS011;39616;48.872;9.390;2022-08-14T14:58:33;1.65;;;1.17;;
53718;SDS011;39616;48.872;9.390;2022-08-14T15:01:06;2.08;;;1.10;;
53718;SDS011;39616;48.872;9.390;2022-08-14T15:03:38;3.63;;;1.10;;
53718;SDS011;39616;48.872;9.390;2022-08-14T15:06:09;1.65;;;1.20;;
53718;SDS011;39616;48.872;9.390;2022-08-14T15:08:40;2.55;;;1.10;;
53718;SDS011;39616;48.872;9.390;2022-08-14T15:11:12;2.25;;;1.20;;
53718;SDS011;39616;48.872;9.390;2022-08-14T15:13:45;1.27;;;1.10;;
53718;SDS011;39616;48.872;9.390;2022-08-14T15:16:16;1.98;;;0.95;;
53718;SDS011;39616;48.872;9.390;2022-08-14T15:18:46;2.45;;;1.10;;
53718;SDS011;39616;48.872;9.390;2022-08-14T15:21:17;2.03;;;1.00;;
53718;SDS011;39616;48.872;9.390;2022-08-14T15:23:47;2.45;;;1.10;;
53718;SDS011;39616;48.872;9.390;2022-08-14T15:26:19;1.02;;;0.93;;
53718;SDS011;39616;48.872;9.390;2022-08-14T15:28:50;1.55;;;1.00;;
53718;SDS011;39616;48.872;9.390;2022-08-14T15:31:21;1.60;;;0.93;;
53718;SDS011;39616;48.872;9.390;2022-08-14T15:33:52;1.60;;;0.90;;
53718;SDS011;39616;48.872;9.390;2022-08-14T15:36:43;1.52;;;0.93;;
53718;SDS011;39616;48.872;9.390;2022-08-14T15:39:14;2.65;;;0.90;;
53718;SDS011;39616;48.872;9.390;2022-08-14T15:41:44;0.85;;;0.80;;
53718;SDS011;39616;48.872;9.390;2022-08-14T15:44:15;1.50;;;0.90;;